»·PEaware :: N2570U KSBD-KPSP

N2570U :: KSBD-KPSP

FLIGHT INFORMATION

Flight Status: Arrived
Operator: Privately registered:
United States
More flights under this callsign
Pilot: Scott W. (31825)
Aircraft: PIPER PA-28 CHEROKEE ARCHER
(P28A)
More flights by this aircraft type
Origin: KSBD San Bernardino Intl
United States
Destination: KPSP Palm Springs Intl
United States
More flights between these airports :: More routes between these airports
Route: V388
File this flight plan on PilotEdge
Remarks:
Altitude:
(Current/Filed)
5,500ft
Speed:
(Current/Filed)
110kts
Departed: 22-Dec-20 01:58 PM
Arrived: 22-Dec-20 02:26 PM
Distance/Time
Traveled:
40nm/0:28
Distance/Time
To Go:
Arrived

Flight Plot

Page will automatically refresh every two minutes.

Flight plan parsing failed; only flown route is shown


Map Options




Map Legend


Flown Route
Filed Route
Departure Airport
Arrival Airport
Navaid (VOR, NDB)
Fix

Horizontal Profiles

Position Reports

Time Latitude Longitude Heading Altitude Ground
Speed
22-Dec-20 13:31 34.098157 -117.242496 0 1101ft 0kts
22-Dec-20 13:32 34.098157 -117.242496 0 1101ft 0kts
22-Dec-20 13:33 34.098157 -117.242496 0 1101ft 0kts
22-Dec-20 13:34 34.098157 -117.242496 0 1101ft 0kts
22-Dec-20 13:35 34.098157 -117.242496 0 1101ft 0kts
22-Dec-20 13:36 34.098157 -117.242496 0 1101ft 0kts
22-Dec-20 13:37 34.098157 -117.242496 0 1101ft 0kts
22-Dec-20 13:38 34.098157 -117.242496 359 1101ft 0kts
22-Dec-20 13:39 34.098157 -117.242496 359 1101ft 0kts
22-Dec-20 13:40 34.098157 -117.242496 359 1101ft 0kts
22-Dec-20 13:41 34.098157 -117.242496 359 1101ft 0kts
22-Dec-20 13:42 34.098157 -117.242496 359 1101ft 0kts
22-Dec-20 13:43 34.098157 -117.242496 359 1101ft 0kts
22-Dec-20 13:44 34.098157 -117.242496 359 1101ft 0kts
22-Dec-20 13:45 34.098157 -117.242496 359 1101ft 0kts
22-Dec-20 13:46 34.098157 -117.242496 359 1101ft 0kts
22-Dec-20 13:47 34.098157 -117.242496 359 1101ft 0kts
22-Dec-20 13:48 34.098157 -117.242496 359 1101ft 0kts
22-Dec-20 13:49 34.097491 -117.241956 173 1102ft 11kts
22-Dec-20 13:50 34.094965 -117.242248 244 1101ft 7kts
22-Dec-20 13:51 34.093347 -117.247708 250 1091ft 24kts
22-Dec-20 13:52 34.091836 -117.251174 153 1085ft 0kts
22-Dec-20 13:53 34.091837 -117.251175 153 1085ft 0kts
22-Dec-20 13:54 34.091837 -117.251175 153 1085ft 0kts
22-Dec-20 13:55 34.091569 -117.250745 160 1086ft 0kts
22-Dec-20 13:56 34.090914 -117.249973 104 1087ft 10kts
22-Dec-20 13:58 34.096632 -117.230413 71 1645ft 78kts
22-Dec-20 13:59 34.087784 -117.208095 136 2519ft 82kts
22-Dec-20 14:00 34.070143 -117.189478 136 3338ft 86kts
22-Dec-20 14:01 34.051794 -117.170525 136 4107ft 88kts
22-Dec-20 14:02 34.032825 -117.151274 136 4836ft 90kts
22-Dec-20 14:03 34.013305 -117.131734 137 5442ft 94kts
22-Dec-20 14:04 33.990665 -117.108682 137 5464ft 113kts
22-Dec-20 14:05 33.966818 -117.083851 137 5512ft 113kts
22-Dec-20 14:06 33.942719 -117.058146 137 5473ft 118kts
22-Dec-20 14:07 33.936640 -117.024440 74 5497ft 112kts
22-Dec-20 14:08 33.940954 -116.986727 92 5493ft 116kts
22-Dec-20 14:09 33.939335 -116.947404 90 5507ft 116kts
22-Dec-20 14:10 33.939180 -116.907777 90 5507ft 118kts
22-Dec-20 14:11 33.939754 -116.867745 91 5498ft 120kts
22-Dec-20 14:12 33.940588 -116.828148 88 5577ft 117kts
22-Dec-20 14:12 33.941439 -116.794945 86 5565ft 120kts
22-Dec-20 14:13 33.942547 -116.755436 84 5594ft 117kts
22-Dec-20 14:15 33.934800 -116.711162 106 5408ft 119kts
22-Dec-20 14:16 33.924919 -116.676169 106 4807ft 99kts
22-Dec-20 14:16 33.917527 -116.650774 106 4194ft 95kts
22-Dec-20 14:17 33.908949 -116.621339 106 3422ft 92kts
22-Dec-20 14:18 33.900766 -116.592329 106 2662ft 90kts
22-Dec-20 14:19 33.891565 -116.564763 120 1963ft 86kts
22-Dec-20 14:20 33.877064 -116.541491 133 1495ft 86kts
22-Dec-20 14:21 33.860397 -116.522978 140 1317ft 81kts
22-Dec-20 14:22 33.843208 -116.505710 142 1291ft 81kts
22-Dec-20 14:23 33.824738 -116.489811 142 1154ft 81kts
22-Dec-20 14:24 33.811916 -116.491955 316 786ft 70kts
22-Dec-20 14:25 33.825156 -116.503639 322 417ft 19kts
22-Dec-20 14:26 33.828287 -116.506812 263 428ft 13kts
22-Dec-20 14:27 33.827719 -116.507203 182 427ft 1kts
22-Dec-20 14:28 33.825650 -116.507137 210 423ft 6kts
22-Dec-20 14:29 33.825363 -116.509539 291 425ft 8kts
22-Dec-20 14:30 33.825673 -116.509772 359 426ft 0kts
22-Dec-20 14:31 33.825673 -116.509772 359 426ft 0kts
22-Dec-20 14:32 33.825673 -116.509772 359 426ft 0kts

Navigation Log

Ident Type
Flight plan parsing failed, navigation log unavailable